Time;durP1;ratioP1;P1;durP2;ratioP2;P2;SDS_P1;SDS_P2;PMS_P1;PMS_P2;Temp;Humidity;BMP_temperature;BMP_pressure;BME280_temperature;BME280_humidity;BME280_pressure;Samples;Min_cycle;Max_cycle;Signal;HPM_P1;HPM_P2
2022/04/26 03:36:59;;;;;;;40.33;37.30;;;10.90;95.40;;;;;;5092384;28;20962;-75
2022/04/26 03:39:26;;;;;;;41.27;37.97;;;11.00;95.00;;;;;;5091433;28;20816;-75
2022/04/26 03:41:53;;;;;;;41.87;38.50;;;11.10;94.30;;;;;;5092178;28;20456;-74
2022/04/26 03:44:20;;;;;;;44.60;40.70;;;11.00;94.10;;;;;;5092093;28;20559;-75
2022/04/26 03:46:47;;;;;;;41.13;37.93;;;10.90;94.80;;;;;;5092179;28;20460;-75
2022/04/26 03:49:15;;;;;;;41.40;38.13;;;11.00;94.70;;;;;;5091293;28;20880;-75
2022/04/26 03:51:42;;;;;;;42.40;38.87;;;10.90;95.20;;;;;;5091947;28;20532;-75
2022/04/26 03:54:09;;;;;;;42.70;39.50;;;10.90;95.40;;;;;;5091996;28;20481;-75
2022/04/26 03:56:36;;;;;;;43.23;39.80;;;10.90;95.10;;;;;;5092115;28;20454;-75
2022/04/26 03:59:03;;;;;;;39.40;36.10;;;11.00;95.40;;;;;;5091614;28;21031;-75
2022/04/26 04:01:30;;;;;;;39.00;35.80;;;11.00;95.20;;;;;;5091463;28;20493;-75
2022/04/26 04:03:57;;;;;;;40.40;37.10;;;11.00;94.80;;;;;;5092031;28;20473;-74
2022/04/26 04:06:25;;;;;;;39.80;36.70;;;11.00;94.90;;;;;;5092337;28;20454;-74
2022/04/26 04:08:52;;;;;;;37.57;34.67;;;11.00;94.60;;;;;;5091736;28;20552;-74
2022/04/26 04:11:19;;;;;;;36.80;34.07;;;11.10;94.60;;;;;;5091513;28;20442;-75
2022/04/26 04:13:45;;;;;;;36.53;33.87;;;11.10;94.20;;;;;;5091706;28;20469;-75
2022/04/26 04:16:12;;;;;;;37.70;34.90;;;11.00;94.00;;;;;;5092137;28;20541;-74
2022/04/26 04:21:27;;;;;;;36.10;33.50;;;11.10;94.10;;;;;;5073478;28;20441;-75
2022/04/26 04:23:54;;;;;;;38.90;36.00;;;11.10;93.60;;;;;;5091313;28;20986;-75
2022/04/26 04:26:21;;;;;;;36.70;33.90;;;11.10;93.50;;;;;;5091784;28;20484;-74
2022/04/26 04:28:48;;;;;;;39.57;36.57;;;11.20;93.50;;;;;;5091303;28;21038;-75
2022/04/26 04:31:15;;;;;;;36.70;34.00;;;11.00;93.60;;;;;;5091095;28;20450;-75
2022/04/26 04:33:43;;;;;;;36.80;34.00;;;11.00;93.80;;;;;;5091565;28;20478;-74
2022/04/26 04:36:10;;;;;;;36.83;33.93;;;11.00;94.10;;;;;;5094602;28;21013;-75
2022/04/26 04:38:38;;;;;;;36.43;33.63;;;11.00;94.00;;;;;;5095255;28;20453;-75
2022/04/26 04:41:06;;;;;;;38.23;35.43;;;11.00;94.00;;;;;;5094705;28;20537;-75
2022/04/26 04:43:33;;;;;;;37.80;34.83;;;11.00;94.20;;;;;;5095115;28;20473;-75
2022/04/26 04:46:00;;;;;;;37.60;34.80;;;11.00;94.20;;;;;;5095087;28;20453;-75
2022/04/26 04:48:26;;;;;;;36.87;34.07;;;11.10;94.20;;;;;;5094926;28;20819;-75
2022/04/26 04:50:53;;;;;;;38.73;35.87;;;11.10;94.00;;;;;;5094316;28;20986;-75
2022/04/26 04:53:21;;;;;;;38.73;35.90;;;11.10;93.80;;;;;;5095153;28;20555;-75
2022/04/26 04:55:49;;;;;;;35.27;32.77;;;11.10;93.70;;;;;;5094826;28;21017;-75
2022/04/26 04:58:16;;;;;;;37.00;34.30;;;11.20;93.60;;;;;;5094898;28;20545;-75
2022/04/26 05:00:43;;;;;;;36.77;33.97;;;11.20;93.40;;;;;;5094208;28;20450;-75
2022/04/26 05:03:10;;;;;;;34.70;32.10;;;11.20;93.40;;;;;;5094754;28;20465;-75
2022/04/26 05:05:37;;;;;;;38.13;35.23;;;11.20;93.30;;;;;;5094786;28;20449;-74
2022/04/26 05:08:04;;;;;;;34.63;32.20;;;11.30;93.40;;;;;;5094602;28;20455;-74
2022/04/26 05:10:33;;;;;;;34.37;31.70;;;11.30;93.10;;;;;;5094054;28;20478;-74
2022/04/26 05:13:01;;;;;;;35.23;32.67;;;11.30;93.10;;;;;;5094628;28;20469;-75
2022/04/26 05:15:28;;;;;;;35.33;32.80;;;11.30;92.80;;;;;;5094378;28;20458;-74
2022/04/26 05:17:55;;;;;;;37.70;34.90;;;11.40;92.40;;;;;;5094630;28;20450;-74
2022/04/26 05:20:22;;;;;;;35.30;32.80;;;11.50;92.00;;;;;;5093977;28;20815;-75
2022/04/26 05:25:34;;;;;;;35.70;33.00;;;11.50;91.90;;;;;;5094428;28;20499;-75
2022/04/26 05:28:03;;;;;;;37.43;34.83;;;11.50;91.90;;;;;;5094089;28;20449;-75
2022/04/26 05:30:30;;;;;;;39.40;36.07;;;11.60;92.10;;;;;;5093463;28;20561;-75
2022/04/26 05:32:56;;;;;;;37.20;34.43;;;11.60;91.90;;;;;;5094251;28;20453;-75
2022/04/26 05:35:24;;;;;;;39.80;36.80;;;11.70;91.80;;;;;;5094242;28;20449;-75
2022/04/26 05:37:51;;;;;;;38.30;35.47;;;11.80;91.70;;;;;;5094238;28;20504;-75
2022/04/26 05:40:18;;;;;;;35.50;32.93;;;11.80;91.80;;;;;;5093431;28;20446;-74
2022/04/26 05:42:45;;;;;;;37.80;35.00;;;11.70;91.40;;;;;;5094063;28;20456;-74
2022/04/26 05:45:13;;;;;;;39.73;36.87;;;11.60;91.40;;;;;;5093972;28;20453;-74
2022/04/26 05:47:44;;;;;;;36.27;33.37;;;11.60;91.50;;;;;;5094024;28;20454;-74
2022/04/26 05:50:12;;;;;;;36.43;33.83;;;11.60;91.90;;;;;;5093104;28;20514;-75
2022/04/26 05:52:39;;;;;;;34.63;32.17;;;11.60;91.90;;;;;;5093935;28;21038;-75
2022/04/26 05:55:08;;;;;;;35.00;32.07;;;11.60;93.50;;;;;;5093722;28;20450;-75
2022/04/26 05:57:38;;;;;;;37.13;34.57;;;11.60;93.30;;;;;;5093603;28;20462;-75
2022/04/26 06:00:07;;;;;;;35.80;33.30;;;11.60;93.00;;;;;;5093120;28;20456;-75
2022/04/26 06:02:35;;;;;;;38.27;35.57;;;11.70;92.50;;;;;;5093736;28;20446;-75
2022/04/26 06:05:02;;;;;;;37.00;34.40;;;11.70;92.00;;;;;;5093481;28;20473;-75
2022/04/26 06:07:29;;;;;;;38.20;35.37;;;11.70;92.00;;;;;;5093657;28;20544;-75
2022/04/26 06:09:56;;;;;;;38.33;35.17;;;11.70;92.30;;;;;;5092872;28;20998;-75
2022/04/26 06:12:26;;;;;;;35.70;33.00;;;11.60;92.00;;;;;;5093318;28;20999;-75
2022/04/26 06:14:54;;;;;;;38.23;35.50;;;11.50;91.90;;;;;;5093160;28;20966;-74
2022/04/26 06:17:20;;;;;;;35.97;33.47;;;11.60;92.00;;;;;;5093535;28;20795;-75
2022/04/26 06:19:49;;;;;;;39.20;36.47;;;11.60;91.70;;;;;;5092704;28;20446;-75
2022/04/26 06:22:16;;;;;;;37.20;34.40;;;11.70;91.60;;;;;;5093420;28;20446;-75
2022/04/26 06:24:42;;;;;;;35.53;32.97;;;11.80;91.60;;;;;;5093016;28;20492;-75
2022/04/26 06:27:09;;;;;;;35.67;33.17;;;11.90;91.10;;;;;;5093060;28;20469;-75
2022/04/26 06:29:37;;;;;;;37.53;35.03;;;12.00;90.70;;;;;;5092347;28;20473;-74
2022/04/26 06:32:04;;;;;;;40.07;37.17;;;12.10;90.00;;;;;;5093205;28;20477;-74
2022/04/26 06:34:31;;;;;;;38.90;36.20;;;12.10;89.40;;;;;;5093162;28;20560;-75
2022/04/26 06:37:00;;;;;;;39.53;36.50;;;12.10;89.10;;;;;;5093110;28;20545;-75
2022/04/26 06:39:27;;;;;;;39.33;36.43;;;12.00;89.30;;;;;;5092344;28;20536;-75
2022/04/26 06:41:54;;;;;;;37.97;35.13;;;11.90;89.50;;;;;;5092901;28;20937;-75
2022/04/26 06:44:20;;;;;;;36.30;33.63;;;11.80;90.30;;;;;;5092834;28;20564;-75
2022/04/26 06:46:49;;;;;;;36.00;33.30;;;11.70;90.50;;;;;;5092767;28;21017;-75
2022/04/26 06:49:16;;;;;;;37.13;34.57;;;11.50;91.00;;;;;;5092024;28;20538;-75
2022/04/26 06:51:44;;;;;;;35.77;33.20;;;11.40;90.90;;;;;;5092647;28;20449;-74
2022/04/26 06:54:12;;;;;;;35.30;32.87;;;11.30;91.00;;;;;;5092446;28;20480;-75
2022/04/26 06:56:41;;;;;;;35.47;32.90;;;11.40;91.40;;;;;;5092757;28;20449;-75
2022/04/26 06:59:08;;;;;;;36.60;33.90;;;11.50;91.30;;;;;;5091882;28;20449;-75
2022/04/26 07:01:35;;;;;;;33.00;30.83;;;11.60;90.90;;;;;;5092639;28;20438;-75
2022/04/26 07:04:02;;;;;;;35.50;32.73;;;11.80;90.20;;;;;;5092549;28;20951;-75
2022/04/26 07:06:29;;;;;;;37.10;34.57;;;11.90;90.00;;;;;;5092486;28;20457;-74
2022/04/26 07:08:57;;;;;;;37.10;34.40;;;12.00;90.00;;;;;;5092263;28;20493;-75
2022/04/26 07:11:25;;;;;;;34.17;31.80;;;12.10;89.60;;;;;;5091864;28;20477;-75
2022/04/26 07:13:52;;;;;;;35.97;33.23;;;12.20;89.50;;;;;;5092438;28;20479;-75
2022/04/26 07:16:19;;;;;;;33.40;31.10;;;12.20;90.20;;;;;;5092373;28;20457;-75
2022/04/26 07:18:46;;;;;;;32.80;30.60;;;12.30;89.60;;;;;;5092009;28;20461;-75
2022/04/26 07:21:13;;;;;;;33.83;31.60;;;12.50;88.30;;;;;;5091775;28;20456;-75
2022/04/26 07:23:40;;;;;;;35.57;33.17;;;12.70;86.90;;;;;;5091805;28;20492;-75
2022/04/26 07:26:07;;;;;;;32.50;30.27;;;12.70;86.40;;;;;;5092376;28;20515;-75
2022/04/26 07:28:35;;;;;;;33.07;30.97;;;12.80;85.50;;;;;;5091784;28;20955;-75
2022/04/26 07:31:04;;;;;;;33.00;30.90;;;13.00;85.20;;;;;;5091612;28;20481;-74
2022/04/26 07:36:15;;;;;;;30.20;28.40;;;13.40;81.00;;;;;;5092195;28;20850;-74
2022/04/26 07:38:42;;;;;;;29.37;27.57;;;13.70;79.80;;;;;;5091878;28;20993;-74
2022/04/26 07:41:11;;;;;;;31.70;29.80;;;13.80;79.40;;;;;;5091540;28;20452;-74
2022/04/26 07:43:39;;;;;;;29.10;27.40;;;13.90;78.10;;;;;;5092112;28;20557;-74
2022/04/26 07:46:06;;;;;;;32.13;30.23;;;13.80;78.20;;;;;;5091802;28;20449;-74
2022/04/26 07:48:34;;;;;;;30.63;28.83;;;13.80;78.70;;;;;;5091800;28;20461;-74
2022/04/26 07:51:03;;;;;;;30.13;28.33;;;13.60;78.80;;;;;;5091384;28;20496;-74
2022/04/26 07:53:30;;;;;;;31.60;29.67;;;13.40;79.90;;;;;;5092088;28;20470;-74
2022/04/26 07:55:57;;;;;;;30.40;28.60;;;13.30;79.40;;;;;;5091914;28;20449;-74
2022/04/26 07:58:24;;;;;;;31.57;29.67;;;13.30;80.20;;;;;;5091754;28;20544;-74
2022/04/26 08:00:52;;;;;;;32.33;30.20;;;13.00;78.60;;;;;;5091216;28;20449;-74
2022/04/26 08:03:20;;;;;;;32.30;30.00;;;12.80;78.80;;;;;;5091831;28;20472;-74
2022/04/26 08:05:48;;;;;;;33.80;31.77;;;12.80;79.70;;;;;;5091863;28;20458;-74
2022/04/26 08:08:14;;;;;;;28.10;26.40;;;13.00;80.50;;;;;;5091821;28;20453;-74
2022/04/26 08:10:41;;;;;;;32.20;30.30;;;12.90;80.50;;;;;;5093763;28;20481;-74
2022/04/26 08:13:09;;;;;;;32.20;30.17;;;12.70;80.90;;;;;;5095620;28;20480;-74
2022/04/26 08:15:36;;;;;;;33.27;31.37;;;12.90;81.00;;;;;;5095711;28;20453;-75
2022/04/26 08:18:05;;;;;;;30.43;28.53;;;13.20;80.40;;;;;;5095703;28;20445;-74
2022/04/26 08:20:32;;;;;;;33.33;31.37;;;13.30;77.10;;;;;;5094936;28;20449;-74
2022/04/26 08:23:00;;;;;;;32.03;29.90;;;13.10;76.50;;;;;;5095144;28;20474;-74
2022/04/26 08:28:11;;;;;;;30.27;28.43;;;13.30;78.20;;;;;;5095290;28;20507;-74
2022/04/26 08:30:39;;;;;;;32.77;30.73;;;13.50;77.00;;;;;;5095038;28;20990;-75
2022/04/26 08:33:07;;;;;;;30.37;28.37;;;13.70;76.80;;;;;;5095164;28;20773;-74
2022/04/26 08:35:34;;;;;;;32.60;30.40;;;13.90;76.60;;;;;;5095307;28;20449;-75
2022/04/26 08:38:04;;;;;;;29.97;27.87;;;14.00;77.00;;;;;;5095174;28;20449;-75
2022/04/26 08:40:31;;;;;;;30.50;28.60;;;14.20;76.70;;;;;;5094796;28;20451;-74
2022/04/26 08:42:59;;;;;;;31.20;29.00;;;14.40;76.30;;;;;;5095009;28;20455;-74
2022/04/26 08:45:26;;;;;;;30.37;28.37;;;14.60;75.10;;;;;;5095035;28;20492;-74
2022/04/26 08:53:24;;;;;;;32.03;29.90;;;15.10;74.30;;;;;;5095076;28;20933;-75
2022/04/26 08:55:52;;;;;;;31.20;29.33;;;15.20;73.30;;;;;;5094834;28;20456;-75
2022/04/26 08:58:19;;;;;;;33.00;30.40;;;15.50;72.50;;;;;;5094800;28;21003;-75
2022/04/26 09:01:05;;;;;;;31.03;29.20;;;15.40;70.50;;;;;;5094228;28;20966;-75
2022/04/26 09:03:32;;;;;;;33.53;30.90;;;15.10;70.80;;;;;;5094489;28;20553;-74
2022/04/26 09:06:13;;;;;;;32.07;30.07;;;14.90;70.50;;;;;;5094789;28;20536;-74
2022/04/26 09:08:41;;;;;;;31.40;29.40;;;14.90;71.20;;;;;;5094646;28;20442;-74
2022/04/26 09:11:24;;;;;;;32.07;29.87;;;14.60;71.10;;;;;;5093960;28;20560;-74
2022/04/26 09:13:51;;;;;;;30.37;28.37;;;14.30;69.10;;;;;;5093150;28;20469;-75
2022/04/26 09:16:20;;;;;;;30.70;28.80;;;14.00;69.70;;;;;;5094479;28;20528;-74
2022/04/26 09:18:56;;;;;;;31.50;29.40;;;14.20;69.00;;;;;;5094482;28;20449;-74
2022/04/26 09:21:26;;;;;;;30.00;28.30;;;13.80;70.70;;;;;;5093299;28;20537;-74
2022/04/26 09:23:56;;;;;;;31.30;29.40;;;14.00;70.90;;;;;;5093805;28;20487;-74
2022/04/26 09:26:23;;;;;;;31.40;29.40;;;14.20;71.60;;;;;;5093825;28;20549;-74
2022/04/26 09:28:51;;;;;;;30.53;28.63;;;14.60;68.90;;;;;;5094048;28;20453;-75
2022/04/26 09:31:19;;;;;;;31.67;29.47;;;14.60;68.60;;;;;;5093639;28;20477;-74
2022/04/26 09:33:51;;;;;;;34.20;32.13;;;14.20;68.00;;;;;;5094012;28;20570;-74
2022/04/26 09:36:20;;;;;;;30.60;28.80;;;14.10;69.20;;;;;;5094127;28;20449;-74
2022/04/26 09:38:53;;;;;;;31.40;29.30;;;14.40;69.30;;;;;;5093743;28;20955;-74
2022/04/26 09:41:20;;;;;;;32.93;31.03;;;14.80;69.10;;;;;;5093709;28;20532;-74
2022/04/26 09:43:58;;;;;;;30.40;28.47;;;15.20;66.20;;;;;;5093800;28;20479;-74
2022/04/26 09:46:25;;;;;;;30.37;28.40;;;15.30;64.40;;;;;;5093976;28;20453;-74
2022/04/26 09:48:54;;;;;;;29.97;28.10;;;15.50;64.80;;;;;;5093780;28;20457;-74
2022/04/26 09:51:21;;;;;;;30.70;28.70;;;15.40;62.50;;;;;;5093320;28;20485;-74
2022/04/26 09:53:48;;;;;;;30.87;28.87;;;15.50;62.00;;;;;;5093573;28;20470;-75
2022/04/26 09:56:20;;;;;;;30.20;28.07;;;15.50;62.80;;;;;;5093898;28;20532;-74
2022/04/26 09:58:47;;;;;;;29.20;27.40;;;15.60;61.20;;;;;;5093901;28;20456;-74
2022/04/26 10:01:14;;;;;;;30.00;28.23;;;15.80;60.70;;;;;;5093825;28;20442;-74
2022/04/26 10:03:46;;;;;;;31.03;28.40;;;16.10;60.50;;;;;;5094216;28;20466;-74
2022/04/26 10:06:16;;;;;;;29.77;27.80;;;16.30;58.80;;;;;;5093642;28;20460;-74
2022/04/26 10:08:43;;;;;;;30.33;28.40;;;16.50;58.10;;;;;;5093470;28;20532;-74
2022/04/26 10:11:10;;;;;;;28.20;26.60;;;16.70;57.90;;;;;;5092907;28;20565;-75
2022/04/26 10:13:42;;;;;;;32.17;30.37;;;16.70;58.10;;;;;;5093400;28;20480;-75
2022/04/26 10:16:11;;;;;;;29.60;27.90;;;16.70;55.70;;;;;;5093340;28;20458;-75
2022/04/26 10:18:44;;;;;;;29.87;27.70;;;16.40;56.20;;;;;;5093226;28;20818;-74
2022/04/26 10:21:12;;;;;;;28.70;27.10;;;16.30;58.10;;;;;;5092849;28;20954;-74
2022/04/26 10:24:14;;;;;;;28.20;26.23;;;16.40;57.10;;;;;;5093000;28;20473;-74
2022/04/26 10:26:42;;;;;;;28.27;26.57;;;16.60;56.70;;;;;;5092944;28;20469;-75
2022/04/26 10:29:21;;;;;;;28.40;26.40;;;16.50;56.40;;;;;;5092211;28;20462;-75
2022/04/26 10:31:50;;;;;;;28.77;26.93;;;16.10;57.70;;;;;;5092669;28;21002;-75
2022/04/26 10:34:29;;;;;;;28.70;27.03;;;15.80;58.70;;;;;;5092525;28;20979;-74
2022/04/26 10:36:59;;;;;;;28.60;26.80;;;16.00;58.60;;;;;;5093018;28;20537;-74
2022/04/26 10:39:36;;;;;;;28.20;26.60;;;16.10;57.40;;;;;;5092202;28;20453;-74
2022/04/26 10:42:08;;;;;;;29.00;27.20;;;16.60;56.50;;;;;;5092772;28;20492;-74
2022/04/26 10:44:43;;;;;;;31.67;29.57;;;16.50;53.80;;;;;;5109022;28;20517;-74
2022/04/26 10:47:27;;;;;;;28.70;26.80;;;16.20;55.00;;;;;;5095964;28;20444;-74
2022/04/26 10:49:58;;;;;;;28.17;26.40;;;16.20;56.20;;;;;;5092897;28;20445;-74
2022/04/26 10:52:47;;;;;;;27.97;26.37;;;16.00;55.70;;;;;;5093550;28;20465;-74
2022/04/26 10:55:16;;;;;;;28.00;26.30;;;15.90;55.70;;;;;;5092858;28;20620;-74
2022/04/26 10:57:52;;;;;;;27.73;26.10;;;16.10;55.80;;;;;;5092373;28;20454;-74
2022/04/26 11:00:27;;;;;;;28.10;26.40;;;16.00;55.90;;;;;;5091934;28;20460;-74
2022/04/26 11:03:01;;;;;;;26.43;24.83;;;16.00;52.70;;;;;;5092453;28;20532;-74
2022/04/26 11:05:32;;;;;;;26.93;25.13;;;16.00;53.20;;;;;;5092565;28;20453;-74
2022/04/26 11:08:00;;;;;;;26.93;25.33;;;16.30;51.60;;;;;;5092481;28;20947;-74
2022/04/26 11:11:00;;;;;;;28.00;26.10;;;16.30;51.30;;;;;;5091669;28;20528;-74
2022/04/26 11:13:31;;;;;;;27.80;26.10;;;16.40;51.30;;;;;;5092373;28;20469;-74
2022/04/26 11:16:13;;;;;;;27.33;25.63;;;16.70;51.50;;;;;;5092747;28;20445;-74
2022/04/26 11:18:42;;;;;;;26.43;24.93;;;17.10;51.50;;;;;;5092339;28;20449;-74
2022/04/26 11:21:11;;;;;;;28.67;26.73;;;17.30;49.50;;;;;;5091816;28;20868;-74
2022/04/26 11:29:27;;;;;;;31.20;29.17;;;16.40;57.70;;;;;;5091749;28;20433;-74
2022/04/26 11:31:56;;;;;;;33.10;30.97;;;15.60;62.10;;;;;;5087212;28;20509;-73
2022/04/26 11:34:42;;;;;;;31.70;29.70;;;15.40;63.00;;;;;;5092149;28;20478;-74
2022/04/26 11:37:12;;;;;;;31.13;29.23;;;15.70;63.10;;;;;;5092173;28;20946;-74
2022/04/26 11:39:42;;;;;;;35.57;33.37;;;15.60;62.60;;;;;;5091569;28;20453;-74
2022/04/26 11:42:09;;;;;;;33.87;31.50;;;14.90;64.40;;;;;;5092344;28;20450;-74
2022/04/26 11:44:37;;;;;;;32.73;30.63;;;14.00;66.20;;;;;;5094508;28;20478;-74
2022/04/26 11:47:12;;;;;;;34.93;32.50;;;13.60;67.50;;;;;;5096053;28;20476;-74
2022/04/26 11:49:40;;;;;;;33.00;30.80;;;13.40;68.50;;;;;;5095535;28;20453;-74
2022/04/26 11:52:07;;;;;;;32.67;30.57;;;13.30;68.60;;;;;;5095945;28;20477;-74
2022/04/26 11:54:35;;;;;;;33.57;31.37;;;13.10;69.10;;;;;;5095811;28;20477;-74
2022/04/26 11:57:02;;;;;;;32.70;30.63;;;13.10;69.20;;;;;;5096073;28;21251;-74
2022/04/26 11:59:29;;;;;;;33.43;31.23;;;12.90;69.10;;;;;;5095405;28;20547;-74
2022/04/26 12:01:56;;;;;;;37.57;35.50;;;12.60;69.90;;;;;;5095924;28;20446;-74
2022/04/26 12:04:25;;;;;;;32.83;30.70;;;12.70;70.10;;;;;;5095787;28;20476;-74
2022/04/26 12:06:54;;;;;;;31.73;29.73;;;13.00;69.50;;;;;;5095962;28;20454;-74
2022/04/26 12:09:23;;;;;;;38.27;36.00;;;13.20;67.80;;;;;;5095552;28;20518;-74
2022/04/26 12:12:00;;;;;;;29.77;27.97;;;13.40;65.30;;;;;;5095605;28;20892;-74
2022/04/26 12:14:28;;;;;;;31.30;29.30;;;13.40;65.50;;;;;;5095670;28;20469;-74
2022/04/26 12:16:55;;;;;;;32.70;30.60;;;13.40;63.60;;;;;;5095350;28;20457;-74
2022/04/26 12:19:34;;;;;;;32.17;30.07;;;13.20;65.30;;;;;;5094855;28;20457;-74
2022/04/26 12:22:02;;;;;;;30.63;28.70;;;13.20;65.30;;;;;;5095590;28;20446;-74
2022/04/26 12:24:31;;;;;;;31.30;29.20;;;13.30;65.50;;;;;;5094928;28;20483;-74
2022/04/26 12:27:00;;;;;;;29.33;27.53;;;13.50;65.20;;;;;;5095229;28;20833;-74
2022/04/26 12:29:29;;;;;;;33.80;31.60;;;13.70;66.00;;;;;;5094474;28;20931;-74
2022/04/26 12:31:56;;;;;;;29.47;27.57;;;14.00;64.40;;;;;;5095109;28;20493;-74
2022/04/26 12:34:24;;;;;;;30.97;28.97;;;13.90;64.30;;;;;;5095192;28;20577;-74
2022/04/26 12:36:55;;;;;;;30.47;28.37;;;13.90;64.70;;;;;;5095121;28;20456;-74
2022/04/26 12:39:23;;;;;;;30.60;28.50;;;13.80;65.20;;;;;;5094629;28;20453;-74
2022/04/26 12:41:51;;;;;;;30.57;28.60;;;13.60;66.50;;;;;;5095095;28;20807;-74
2022/04/26 12:44:18;;;;;;;29.23;27.50;;;13.00;66.10;;;;;;5094999;28;20469;-74
2022/04/26 12:46:46;;;;;;;30.30;28.20;;;12.50;67.50;;;;;;5095164;28;20781;-74
2022/04/26 12:51:59;;;;;;;30.70;28.70;;;12.30;71.40;;;;;;5095165;28;20489;-73
2022/04/26 12:54:26;;;;;;;27.73;26.03;;;12.20;71.30;;;;;;5095355;28;20469;-73
2022/04/26 12:56:57;;;;;;;31.40;28.20;;;12.10;73.00;;;;;;5094351;28;20445;-74
2022/04/26 12:59:24;;;;;;;30.43;28.47;;;12.20;72.90;;;;;;5094523;28;20578;-74
2022/04/26 13:01:51;;;;;;;28.70;26.90;;;12.20;72.80;;;;;;5095130;28;20453;-74
2022/04/26 13:04:18;;;;;;;28.03;26.33;;;12.20;72.60;;;;;;5095037;28;20469;-75
2022/04/26 13:06:45;;;;;;;27.07;25.50;;;12.30;72.60;;;;;;5094774;28;21010;-75
2022/04/26 13:09:14;;;;;;;30.60;28.70;;;12.20;73.50;;;;;;5094150;28;20537;-75
2022/04/26 13:11:43;;;;;;;28.83;27.13;;;12.30;74.30;;;;;;5094570;28;20484;-74
2022/04/26 13:14:09;;;;;;;27.67;26.03;;;12.60;73.30;;;;;;5094650;28;20481;-74
2022/04/26 13:16:36;;;;;;;26.90;25.23;;;12.90;72.70;;;;;;5094523;28;20458;-74
2022/04/26 13:19:03;;;;;;;28.13;26.33;;;13.20;72.50;;;;;;5094297;28;20537;-74
2022/04/26 13:21:30;;;;;;;27.50;25.60;;;13.60;73.10;;;;;;5094139;28;20445;-74
2022/04/26 13:23:57;;;;;;;26.93;25.03;;;13.90;72.10;;;;;;5093726;28;20513;-74
2022/04/26 13:26:26;;;;;;;27.23;25.53;;;14.20;71.90;;;;;;5094014;28;20563;-74
2022/04/26 13:28:53;;;;;;;27.70;25.90;;;14.80;72.90;;;;;;5095128;28;20502;-74
2022/04/26 13:31:20;;;;;;;28.40;26.50;;;15.20;70.30;;;;;;5093627;28;20481;-74
2022/04/26 13:33:47;;;;;;;27.13;25.63;;;15.50;69.90;;;;;;5094097;28;20517;-74
2022/04/26 13:36:15;;;;;;;27.40;25.90;;;15.70;68.30;;;;;;5093941;28;20449;-74
2022/04/26 13:38:42;;;;;;;26.83;25.20;;;15.90;65.00;;;;;;5093891;28;20454;-74
2022/04/26 13:41:09;;;;;;;29.57;27.87;;;15.70;62.50;;;;;;5093326;28;20472;-74
2022/04/26 13:43:41;;;;;;;26.50;24.90;;;15.40;60.30;;;;;;5094074;28;20465;-74
2022/04/26 13:46:10;;;;;;;29.17;27.57;;;14.90;61.90;;;;;;5094002;28;20543;-74
2022/04/26 13:48:37;;;;;;;30.40;28.80;;;15.10;63.20;;;;;;5093629;28;20511;-74
2022/04/26 13:51:04;;;;;;;27.00;25.40;;;14.70;59.00;;;;;;5093182;28;20454;-74
2022/04/26 13:53:31;;;;;;;27.17;25.57;;;14.50;59.90;;;;;;5093865;28;20557;-74
2022/04/26 13:55:59;;;;;;;26.50;25.00;;;14.50;62.00;;;;;;5093729;28;20546;-75
2022/04/26 13:58:26;;;;;;;26.70;24.90;;;14.60;63.20;;;;;;5093828;28;20450;-75
2022/04/26 14:00:55;;;;;;;26.10;24.50;;;14.90;63.30;;;;;;5093088;28;20483;-74
2022/04/26 14:03:22;;;;;;;27.30;25.70;;;15.40;60.60;;;;;;5093571;28;20473;-75
2022/04/26 14:05:48;;;;;;;26.70;25.10;;;15.90;57.30;;;;;;5093526;28;20545;-75
2022/04/26 14:08:15;;;;;;;27.03;25.30;;;16.30;57.50;;;;;;5093555;28;20452;-75
2022/04/26 14:10:42;;;;;;;27.43;25.83;;;16.30;55.00;;;;;;5092946;28;20941;-75
2022/04/26 14:13:09;;;;;;;26.20;24.70;;;16.40;55.90;;;;;;5093425;28;20488;-75
2022/04/26 14:24:22;;;;;;;26.83;25.23;;;15.90;56.40;;;;;;5017064;28;20542;-74
2022/04/26 14:26:49;;;;;;;26.33;24.83;;;16.20;54.70;;;;;;5066492;28;20471;-74
2022/04/26 14:29:16;;;;;;;26.87;25.27;;;16.10;54.50;;;;;;5092415;28;20526;-75
2022/04/26 14:31:43;;;;;;;26.97;25.20;;;15.60;56.40;;;;;;5092960;28;20464;-75
2022/04/26 14:34:13;;;;;;;26.70;25.03;;;15.50;56.50;;;;;;5092938;28;20544;-75
2022/04/26 14:36:40;;;;;;;27.30;25.70;;;15.40;57.40;;;;;;5092981;28;20506;-74
2022/04/26 14:39:07;;;;;;;30.53;28.57;;;15.10;57.70;;;;;;5092616;28;20460;-74
2022/04/26 14:41:34;;;;;;;28.07;26.37;;;14.80;57.80;;;;;;5092856;28;20454;-74
2022/04/26 14:44:01;;;;;;;27.20;25.30;;;14.30;59.40;;;;;;5092846;28;20492;-74
2022/04/26 14:46:29;;;;;;;28.80;27.00;;;14.20;60.60;;;;;;5093102;28;20450;-74
2022/04/26 14:48:55;;;;;;;27.80;26.10;;;14.20;60.90;;;;;;5092827;28;20446;-75
2022/04/26 14:51:24;;;;;;;30.43;28.63;;;14.30;60.70;;;;;;5092197;28;20456;-74
2022/04/26 14:53:51;;;;;;;26.57;24.97;;;14.60;59.60;;;;;;5092747;28;20481;-74
2022/04/26 14:56:17;;;;;;;26.43;24.93;;;14.70;59.20;;;;;;5092641;28;20532;-74
2022/04/26 14:58:44;;;;;;;26.33;24.73;;;15.00;59.10;;;;;;5092511;28;20450;-74
2022/04/26 15:01:11;;;;;;;27.90;26.20;;;14.80;57.10;;;;;;5092086;28;20454;-74
2022/04/26 15:03:38;;;;;;;26.07;24.57;;;14.60;57.30;;;;;;5092451;28;20834;-74
2022/04/26 15:06:05;;;;;;;26.57;25.07;;;14.80;57.20;;;;;;5092357;28;20475;-74
2022/04/26 15:11:17;;;;;;;29.30;27.60;;;14.80;57.10;;;;;;5092084;28;20799;-74
2022/04/26 15:16:42;;;;;;;26.97;25.37;;;15.10;57.30;;;;;;5092367;28;20441;-75
2022/04/26 15:19:10;;;;;;;27.17;25.57;;;14.90;58.40;;;;;;5091438;28;20449;-75
2022/04/26 15:21:38;;;;;;;26.27;24.67;;;14.30;59.70;;;;;;5092298;28;20522;-75
2022/04/26 15:24:07;;;;;;;26.30;24.70;;;13.90;60.90;;;;;;5091818;28;20508;-75
2022/04/26 15:26:34;;;;;;;27.77;25.67;;;13.60;61.60;;;;;;5091860;28;20545;-75
2022/04/26 15:29:01;;;;;;;27.07;25.13;;;13.50;62.50;;;;;;5092011;28;20456;-75
2022/04/26 15:31:28;;;;;;;26.57;24.97;;;13.50;61.70;;;;;;5090818;28;20442;-75
2022/04/26 15:33:55;;;;;;;29.03;27.33;;;13.40;62.90;;;;;;5092009;28;20564;-74
2022/04/26 15:36:23;;;;;;;28.20;26.40;;;13.40;63.30;;;;;;5092095;28;20537;-75
2022/04/26 15:38:56;;;;;;;27.47;25.77;;;13.50;63.50;;;;;;5091831;28;20947;-75
2022/04/26 15:41:25;;;;;;;26.93;25.43;;;13.60;63.00;;;;;;5091430;28;20457;-75
2022/04/26 15:43:52;;;;;;;30.23;28.60;;;13.50;63.30;;;;;;5091973;28;20493;-75
2022/04/26 15:46:19;;;;;;;27.00;25.37;;;13.20;65.40;;;;;;5092011;28;21005;-75
2022/04/26 15:48:48;;;;;;;27.10;25.47;;;12.80;67.30;;;;;;5091874;28;20460;-75
2022/04/26 15:51:16;;;;;;;29.07;27.37;;;12.40;69.00;;;;;;5091560;28;20950;-75
2022/04/26 15:53:45;;;;;;;29.97;28.37;;;12.30;69.90;;;;;;5092010;28;20508;-75
2022/04/26 15:56:13;;;;;;;26.10;24.57;;;12.20;72.50;;;;;;5091877;28;20957;-75
2022/04/26 15:58:42;;;;;;;28.00;26.30;;;12.40;72.60;;;;;;5092006;28;20457;-75
2022/04/26 16:01:09;;;;;;;25.90;24.50;;;12.80;70.60;;;;;;5091482;28;20458;-75
2022/04/26 16:03:36;;;;;;;28.30;26.67;;;12.80;71.00;;;;;;5091969;28;20469;-75
2022/04/26 16:06:04;;;;;;;26.70;25.10;;;12.90;71.50;;;;;;5091945;28;20540;-75
2022/04/26 16:08:32;;;;;;;26.87;25.27;;;13.10;71.30;;;;;;5092069;28;20887;-74
2022/04/26 16:22:04;;;;;;;26.63;25.00;;;16.70;65.00;;;;;;5091994;28;20635;-75
2022/04/26 16:24:36;;;;;;;24.93;23.53;;;18.20;60.40;;;;;;5091275;28;20550;-75
2022/04/26 16:27:03;;;;;;;26.07;24.47;;;18.00;59.30;;;;;;5091509;28;20462;-75
2022/04/26 16:29:32;;;;;;;28.47;27.00;;;17.30;60.00;;;;;;5091099;28;20456;-75
2022/04/26 16:31:59;;;;;;;25.87;24.37;;;16.40;62.10;;;;;;5094663;28;20456;-75
2022/04/26 16:34:27;;;;;;;25.83;24.43;;;15.60;63.30;;;;;;5095212;28;20903;-75
2022/04/26 16:36:54;;;;;;;25.17;23.77;;;14.80;64.50;;;;;;5095201;28;20449;-75
2022/04/26 16:39:21;;;;;;;26.77;25.40;;;14.10;67.80;;;;;;5094515;28;20453;-75
2022/04/26 16:41:48;;;;;;;25.57;23.97;;;13.90;68.70;;;;;;5094887;28;20998;-75
2022/04/26 16:44:15;;;;;;;25.60;24.10;;;13.70;69.20;;;;;;5095195;28;20544;-75
2022/04/26 16:46:44;;;;;;;25.53;23.90;;;13.40;68.70;;;;;;5095139;28;20454;-75
2022/04/26 16:49:11;;;;;;;27.07;25.47;;;12.70;71.20;;;;;;5094430;28;20460;-75
2022/04/26 16:51:37;;;;;;;25.63;24.13;;;12.50;73.40;;;;;;5095020;28;20981;-75
2022/04/26 16:54:04;;;;;;;27.87;26.07;;;12.30;74.50;;;;;;5094712;28;20483;-75
2022/04/26 16:56:32;;;;;;;26.67;25.07;;;12.10;75.60;;;;;;5094804;28;20453;-75
2022/04/26 16:58:59;;;;;;;26.57;25.07;;;12.20;76.60;;;;;;5094701;28;20453;-74
2022/04/26 17:01:26;;;;;;;26.10;24.60;;;12.80;75.10;;;;;;5094213;28;20488;-74